Pagrindinis puslapis
METAR-TAF:

METAR-TAF

Oro uostai :

Lapenranta, Suomija

platuma: 61-02-45N, ilguma: 028-08-55E, Aukštis: 106 m

Dabartinis oras

Ataskaita buvo paskelbta 37 minutes, ne 09:20 UTC
Vėjas 13 kt iš Pietų/Pietvakarių, svyruoja nuo Pietų ir Vakarų/Pietvakarių
Temperatūra 5°C
Drėgmė 87%
Slėgis 978 hPa
Matomumas 10 km arba daugiau
Su prošvaistėmis ne aukštis 1800 ft

METAR: EFLP 090920Z AUTO 20013KT 180V240 9999 BKN018 05/03 Q0978

Laikas: 11:57 (09:57 UTC)

Prognozė

Ataskaita buvo paskelbta 1 valandą ir 20 minutes, ne 08:37 UTC
Prognozė galioja nuo 09 metu 09 UTC su 09 metu 14 UTC
Vėjas 13 kt iš Pietų/Pietvakarių
Matomumas 10 km arba daugiau
Su prošvaistėmis ne aukštis 1600 ft
Laikinai
nuo 09 metu 09 UTC su 09 metu 14 UTC
Vėjas 15 kt iš Pietvakarių su gūsio iki 25 kt
Su prošvaistėmis ne aukštis 1200 ft

TAF: EFLP 090837Z 0909/0914 21013KT 9999 BKN016 TEMPO 0909/0914 22015G25KT BKN012

Orai ataskaitas ir orų prognozės (METAR, TAF).

turimą stotys yra geltonos ir raudonos taškus žemėlapyje.

Perkelti pele per norėdami pamatyti stoties vardą.

Tada spustelėkite, norėdami matyti oro stebėjimo ir prognozės.

Norėdami pakeisti žemėlapį: spustelėkite ant žalios mygtukų su juodo kryžiaus žemyn,; žalią mygtuką su brūkšneliu, jei norite nutolinti; arba žalių rodyklių gretimoms žemėlapius.


METAR-TAF: